Time;durP1;ratioP1;P1;durP2;ratioP2;P2;SDS_P1;SDS_P2;PMS_P1;PMS_P2;Temp;Humidity;BMP_temperature;BMP_pressure;BME280_temperature;BME280_humidity;BME280_pressure;Samples;Min_cycle;Max_cycle;Signal;HPM_P1;HPM_P2
2023/01/10 00:00:35;;;;;;;17.73;2.97;;;7.40;99.90;;;;;;5052929;28;20071;-69
2023/01/10 00:03:08;;;;;;;17.20;2.83;;;7.30;99.90;;;;;;5051526;28;20025;-70
2023/01/10 00:05:34;;;;;;;;;;;7.20;99.90;;;;;;5053665;28;20104;-68
2023/01/10 00:08:01;;;;;;;16.35;2.55;;;7.00;99.90;;;;;;5034944;28;19933;-70
2023/01/10 00:10:27;;;;;;;25.15;5.72;;;7.00;99.90;;;;;;5052615;28;20021;-70
2023/01/10 00:15:37;;;;;;;12.27;2.08;;;6.80;99.90;;;;;;5053059;28;20094;-69
2023/01/10 00:18:03;;;;;;;14.32;2.50;;;6.60;99.90;;;;;;5052959;28;20052;-70
2023/01/10 00:20:29;;;;;;;15.32;2.40;;;6.60;99.90;;;;;;5053173;28;20385;-68
2023/01/10 00:22:55;;;;;;;14.10;2.53;;;6.60;99.90;;;;;;5051976;28;20072;-71
2023/01/10 00:25:21;;;;;;;19.30;2.65;;;6.40;99.90;;;;;;5053704;28;20025;-70
2023/01/10 00:30:43;;;;;;;12.65;2.50;;;6.50;99.90;;;;;;5040349;28;20393;-71
2023/01/10 00:33:16;;;;;;;15.07;3.05;;;6.70;99.90;;;;;;5051837;28;20029;-71
2023/01/10 00:35:41;;;;;;;20.85;4.53;;;6.80;99.90;;;;;;5053101;28;20032;-70
2023/01/10 00:38:07;;;;;;;22.83;3.63;;;6.80;99.90;;;;;;5051490;28;20029;-71
2023/01/10 00:40:33;;;;;;;18.70;3.60;;;6.90;99.90;;;;;;5052845;28;20025;-69
2023/01/10 00:45:45;;;;;;;15.68;2.50;;;6.80;99.90;;;;;;5052875;28;20024;-70
2023/01/10 00:48:12;;;;;;;16.25;2.63;;;6.80;99.90;;;;;;5052856;28;20074;-69
2023/01/10 00:50:38;;;;;;;17.25;2.88;;;6.80;99.90;;;;;;5052608;28;20082;-69
2023/01/10 00:53:04;;;;;;;25.42;2.88;;;6.90;99.90;;;;;;5051061;28;20435;-69
2023/01/10 00:55:30;;;;;;;19.80;2.33;;;7.00;99.90;;;;;;5052203;28;20572;-69
2023/01/10 00:57:56;;;;;;;19.58;2.83;;;6.90;99.90;;;;;;5052084;28;20028;-69
2023/01/10 01:00:21;;;;;;;20.13;3.15;;;6.80;99.90;;;;;;5051875;28;20043;-69
2023/01/10 01:02:49;;;;;;;15.90;2.15;;;6.80;99.90;;;;;;5051718;28;20048;-69
2023/01/10 01:05:14;;;;;;;26.75;3.53;;;6.70;99.90;;;;;;5051649;28;20106;-69
2023/01/10 01:07:40;;;;;;;13.85;2.53;;;6.70;99.90;;;;;;5051723;28;20060;-69
2023/01/10 01:12:51;;;;;;;22.20;3.67;;;6.60;99.90;;;;;;5051682;28;20044;-70
2023/01/10 01:15:17;;;;;;;22.58;3.30;;;6.60;99.90;;;;;;5050018;28;20114;-70
2023/01/10 01:17:43;;;;;;;19.77;3.25;;;6.80;99.90;;;;;;5051592;28;20068;-69
2023/01/10 01:20:09;;;;;;;27.63;2.90;;;6.70;99.90;;;;;;5051615;28;20108;-69
2023/01/10 01:22:35;;;;;;;16.08;2.80;;;6.50;99.90;;;;;;5051090;28;20029;-70
2023/01/10 01:25:03;;;;;;;16.77;2.45;;;6.60;99.90;;;;;;5051581;28;20027;-70
2023/01/10 01:27:29;;;;;;;24.67;3.40;;;6.70;99.90;;;;;;5049874;28;20028;-69
2023/01/10 01:29:54;;;;;;;25.13;3.55;;;6.90;99.90;;;;;;5050199;28;20370;-69
2023/01/10 01:32:20;;;;;;;29.38;3.30;;;7.00;99.90;;;;;;5051279;28;20090;-69
2023/01/10 01:34:46;;;;;;;16.02;3.28;;;6.90;99.90;;;;;;5049991;28;20450;-69
2023/01/10 01:37:12;;;;;;;20.70;2.92;;;7.10;99.90;;;;;;5051207;28;20028;-69
2023/01/10 01:39:38;;;;;;;22.65;3.33;;;7.10;99.90;;;;;;5051158;28;20017;-69
2023/01/10 01:42:05;;;;;;;23.70;2.72;;;7.10;99.90;;;;;;5051240;28;20033;-70
2023/01/10 01:44:34;;;;;;;26.20;3.83;;;7.10;99.90;;;;;;5049976;28;20032;-69
2023/01/10 01:47:18;;;;;;;20.85;3.10;;;7.10;99.90;;;;;;5051250;28;20037;-69
2023/01/10 01:49:44;;;;;;;16.60;2.35;;;7.00;99.90;;;;;;5049761;28;20025;-69
2023/01/10 01:52:22;;;;;;;23.45;3.42;;;7.10;99.90;;;;;;5051222;28;20095;-70
2023/01/10 01:54:48;;;;;;;16.98;2.65;;;7.10;99.90;;;;;;5051265;28;20024;-69
2023/01/10 01:57:19;;;;;;;15.60;2.78;;;6.90;99.90;;;;;;5049830;28;20404;-70
2023/01/10 01:59:48;;;;;;;16.13;2.60;;;6.90;99.90;;;;;;5051032;28;20028;-69
2023/01/10 02:02:18;;;;;;;14.80;2.20;;;6.70;99.90;;;;;;5050941;28;20021;-70
2023/01/10 02:04:50;;;;;;;14.82;2.50;;;6.60;99.90;;;;;;5051107;28;20071;-70
2023/01/10 02:07:17;;;;;;;22.67;2.90;;;6.70;99.90;;;;;;5049785;28;20028;-70
2023/01/10 02:09:45;;;;;;;17.58;3.10;;;6.60;99.90;;;;;;5050907;28;20033;-69
2023/01/10 02:12:12;;;;;;;21.92;3.10;;;6.50;99.90;;;;;;5051108;28;20493;-69
2023/01/10 02:14:41;;;;;;;17.63;3.40;;;6.50;99.90;;;;;;5051011;28;20051;-70
2023/01/10 02:17:09;;;;;;;20.95;3.08;;;6.50;99.90;;;;;;5050073;28;20052;-69
2023/01/10 02:20:02;;;;;;;28.20;3.50;;;6.50;99.90;;;;;;5051418;28;20021;-70
2023/01/10 02:23:12;;;;;;;24.73;3.63;;;6.90;1.00;;;;;;5048292;28;20474;-69
2023/01/10 02:26:12;;;;;;;18.98;3.55;;;7.30;1.70;;;;;;5035726;28;20033;-69
2023/01/10 02:28:50;;;;;;;24.00;3.88;;;7.40;1.00;;;;;;5051528;28;20021;-70
2023/01/10 02:31:19;;;;;;;19.55;2.67;;;7.40;99.90;;;;;;5051472;28;20014;-69
2023/01/10 02:34:00;;;;;;;19.02;3.00;;;7.30;99.90;;;;;;5050955;28;20543;-69
2023/01/10 02:36:32;;;;;;;14.13;2.90;;;7.30;99.90;;;;;;5054238;28;20112;-69
2023/01/10 02:39:04;;;;;;;17.73;3.20;;;7.50;99.90;;;;;;5053125;28;20448;-70
2023/01/10 02:41:29;;;;;;;;;;;7.70;99.90;;;;;;5054981;28;20032;-69
2023/01/10 02:44:04;;;;;;;27.23;3.55;;;7.80;99.90;;;;;;5054450;28;19904;-70
2023/01/10 02:46:31;;;;;;;14.38;2.65;;;7.80;99.90;;;;;;5054400;28;20025;-69
2023/01/10 02:48:57;;;;;;;23.45;3.97;;;7.80;99.90;;;;;;5054256;28;20029;-69
2023/01/10 02:51:26;;;;;;;12.48;2.55;;;7.70;99.90;;;;;;5054170;28;20351;-69
2023/01/10 02:54:06;;;;;;;24.23;2.53;;;7.70;99.90;;;;;;5052858;28;20045;-68
2023/01/10 02:56:52;;;;;;;19.67;2.85;;;7.50;99.90;;;;;;5054261;28;20108;-70
2023/01/10 02:59:59;;;;;;;23.83;2.88;;;7.30;99.90;;;;;;5053936;28;20351;-69
2023/01/10 03:03:00;;;;;;;15.30;2.95;;;7.10;99.90;;;;;;5052769;28;20041;-70
2023/01/10 03:05:32;;;;;;;22.20;3.00;;;7.00;99.90;;;;;;5054072;28;20458;-69
2023/01/10 03:08:06;;;;;;;17.35;2.92;;;7.00;99.90;;;;;;5054217;28;20028;-70
2023/01/10 03:10:43;;;;;;;19.25;2.60;;;7.00;99.90;;;;;;5052586;28;20029;-70
2023/01/10 03:13:15;;;;;;;20.90;2.75;;;7.00;99.90;;;;;;5053608;28;20033;-70
2023/01/10 03:15:42;;;;;;;20.83;2.97;;;6.90;99.90;;;;;;5054006;28;20355;-70
2023/01/10 03:18:45;;;;;;;32.90;3.53;;;7.20;1.00;;;;;;5052622;28;20029;-68
2023/01/10 03:21:11;;;;;;;34.72;3.10;;;7.20;1.00;;;;;;5029678;28;20068;-70
2023/01/10 03:23:39;;;;;;;19.08;3.63;;;8.00;1.00;;;;;;5053475;28;20078;-70
2023/01/10 03:26:07;;;;;;;23.77;2.53;;;8.10;99.90;;;;;;5053554;28;20029;-70
2023/01/10 03:28:59;;;;;;;23.80;2.97;;;8.10;99.90;;;;;;5053288;28;20390;-70
2023/01/10 03:31:30;;;;;;;30.63;3.10;;;8.10;99.90;;;;;;5053436;28;20474;-69
2023/01/10 03:33:57;;;;;;;24.43;2.83;;;8.20;99.90;;;;;;5035940;28;20032;-69
2023/01/10 03:36:40;;;;;;;17.48;3.22;;;8.20;99.90;;;;;;5052119;28;20025;-69
2023/01/10 03:39:36;;;;;;;20.17;3.03;;;8.20;99.90;;;;;;5053554;28;20027;-70
2023/01/10 03:42:09;;;;;;;12.60;2.08;;;8.20;99.90;;;;;;5041356;28;20053;-70
2023/01/10 03:44:43;;;;;;;34.00;3.60;;;8.20;99.90;;;;;;5052003;28;20110;-70
2023/01/10 03:47:33;;;;;;;24.63;2.92;;;8.10;99.90;;;;;;5053062;28;20017;-69
2023/01/10 03:50:10;;;;;;;26.60;3.42;;;8.10;99.90;;;;;;5053102;28;20021;-69
2023/01/10 03:52:38;;;;;;;20.05;2.75;;;8.30;99.90;;;;;;5053138;28;20040;-70
2023/01/10 03:55:06;;;;;;;22.48;2.53;;;8.50;99.90;;;;;;5053103;28;20067;-69
2023/01/10 03:57:32;;;;;;;24.70;3.67;;;8.70;99.90;;;;;;5052860;28;20044;-70
2023/01/10 03:59:58;;;;;;;28.85;3.80;;;8.90;99.90;;;;;;5052818;28;20020;-69
2023/01/10 04:02:31;;;;;;;24.27;2.78;;;9.10;99.90;;;;;;5053118;28;20032;-69
2023/01/10 04:04:57;;;;;;;21.13;2.65;;;9.30;99.90;;;;;;5052750;28;20033;-68
2023/01/10 04:07:24;;;;;;;15.65;3.45;;;9.40;99.90;;;;;;5052773;28;20488;-69
2023/01/10 04:09:50;;;;;;;27.55;3.50;;;9.40;99.90;;;;;;5053014;28;20025;-70
2023/01/10 04:12:16;;;;;;;21.23;3.33;;;9.40;99.90;;;;;;5034887;28;20025;-70
2023/01/10 04:14:45;;;;;;;21.35;3.08;;;9.50;99.90;;;;;;5051304;28;20052;-70
2023/01/10 04:17:11;;;;;;;22.00;3.05;;;9.60;99.90;;;;;;5052775;28;20029;-70
2023/01/10 04:19:37;;;;;;;22.08;2.55;;;9.80;99.90;;;;;;5051623;28;20025;-70
2023/01/10 04:22:04;;;;;;;25.95;2.40;;;9.90;99.90;;;;;;5053673;28;20033;-70
2023/01/10 04:24:30;;;;;;;17.90;2.00;;;10.00;99.90;;;;;;5052735;28;20033;-69
2023/01/10 04:26:56;;;;;;;17.35;2.45;;;10.00;99.90;;;;;;5052883;28;20031;-69
2023/01/10 04:29:22;;;;;;;21.55;2.30;;;10.10;99.90;;;;;;5051370;28;20025;-69
2023/01/10 04:31:48;;;;;;;16.55;2.63;;;10.00;99.90;;;;;;5052504;28;20025;-69
2023/01/10 04:34:14;;;;;;;23.50;3.90;;;9.90;99.90;;;;;;5052722;28;20017;-70
2023/01/10 04:36:39;;;;;;;23.70;5.18;;;9.80;99.90;;;;;;5051503;28;20095;-69
2023/01/10 04:39:05;;;;;;;19.88;2.97;;;9.80;99.90;;;;;;5052639;28;20466;-69
2023/01/10 04:41:31;;;;;;;14.35;2.53;;;9.70;99.90;;;;;;5053338;28;20055;-69
2023/01/10 04:43:57;;;;;;;22.70;3.05;;;9.60;99.90;;;;;;5053812;28;20070;-69
2023/01/10 04:46:22;;;;;;;30.35;4.55;;;9.60;99.90;;;;;;5053595;28;20519;-70
2023/01/10 04:48:48;;;;;;;18.45;2.85;;;9.70;99.90;;;;;;5052783;28;20467;-69
2023/01/10 04:51:14;;;;;;;23.27;3.90;;;9.80;99.90;;;;;;5053316;28;20482;-69
2023/01/10 04:53:40;;;;;;;19.08;2.65;;;9.70;99.90;;;;;;5052941;28;20037;-70
2023/01/10 04:56:09;;;;;;;22.30;2.80;;;9.70;99.90;;;;;;5053090;28;20403;-70
2023/01/10 04:58:36;;;;;;;13.85;2.70;;;9.90;99.90;;;;;;5052060;28;20238;-69
2023/01/10 05:01:14;;;;;;;22.50;2.53;;;9.90;99.90;;;;;;5052248;28;20028;-70
2023/01/10 05:03:40;;;;;;;24.23;3.03;;;10.00;99.90;;;;;;5052357;28;20024;-70
2023/01/10 05:06:06;;;;;;;31.20;2.95;;;10.00;99.90;;;;;;5052183;28;20509;-70
2023/01/10 05:08:33;;;;;;;20.80;3.10;;;10.10;99.90;;;;;;5052097;28;20098;-69
2023/01/10 05:10:59;;;;;;;25.60;3.50;;;10.10;99.90;;;;;;5051640;28;20029;-70
2023/01/10 05:13:25;;;;;;;21.17;2.70;;;10.30;99.90;;;;;;5051404;28;20051;-70
2023/01/10 05:15:55;;;;;;;23.73;2.67;;;10.30;99.90;;;;;;5051731;28;20079;-70
2023/01/10 05:18:21;;;;;;;19.50;2.47;;;10.30;99.90;;;;;;5050231;28;20497;-69
2023/01/10 05:20:47;;;;;;;17.45;3.15;;;10.40;99.90;;;;;;5051246;28;20025;-70
2023/01/10 05:23:12;;;;;;;26.17;2.97;;;10.50;99.90;;;;;;5051248;28;20031;-70
2023/01/10 05:25:38;;;;;;;26.85;3.30;;;10.50;99.90;;;;;;5051359;28;20028;-69
2023/01/10 05:28:04;;;;;;;19.40;2.58;;;10.70;99.90;;;;;;5051048;28;20478;-68
2023/01/10 05:30:29;;;;;;;29.77;5.00;;;10.80;99.90;;;;;;5051059;28;20033;-69
2023/01/10 05:32:55;;;;;;;17.40;2.78;;;10.90;99.90;;;;;;5051133;28;20033;-70
2023/01/10 05:35:21;;;;;;;27.35;3.42;;;10.90;99.90;;;;;;5051043;28;20052;-69
2023/01/10 05:37:46;;;;;;;20.67;3.22;;;11.00;99.90;;;;;;5051400;28;20385;-69
2023/01/10 05:40:12;;;;;;;19.60;2.92;;;11.10;99.90;;;;;;5051616;28;20463;-70
2023/01/10 05:42:38;;;;;;;20.48;3.15;;;11.20;99.90;;;;;;5051516;28;20538;-69
2023/01/10 05:45:04;;;;;;;15.25;2.17;;;11.30;99.90;;;;;;5051578;28;20510;-69
2023/01/10 05:47:30;;;;;;;16.65;2.83;;;11.40;99.90;;;;;;5050972;28;20027;-70
2023/01/10 05:49:55;;;;;;;26.25;2.67;;;11.50;99.90;;;;;;5052337;28;20112;-69
2023/01/10 05:52:21;;;;;;;19.63;2.10;;;11.40;99.90;;;;;;5053119;28;20043;-70
2023/01/10 05:54:47;;;;;;;19.42;2.20;;;11.50;99.90;;;;;;5052468;28;20106;-70
2023/01/10 05:57:12;;;;;;;25.20;3.58;;;11.50;99.90;;;;;;5051410;28;20028;-69
2023/01/10 05:59:38;;;;;;;29.85;3.90;;;11.60;99.90;;;;;;5050630;28;20025;-69
2023/01/10 06:02:04;;;;;;;32.50;3.30;;;11.60;99.90;;;;;;5050937;28;20673;-70
2023/01/10 06:04:29;;;;;;;26.73;2.92;;;11.50;99.90;;;;;;5050968;28;20516;-70
2023/01/10 06:06:55;;;;;;;27.92;3.55;;;11.50;99.90;;;;;;5052882;28;20024;-70
2023/01/10 06:09:21;;;;;;;38.42;4.53;;;11.50;99.90;;;;;;5056596;28;20388;-70
2023/01/10 06:11:46;;;;;;;27.85;3.13;;;11.40;99.90;;;;;;5054847;28;20031;-69
2023/01/10 06:14:12;;;;;;;23.58;3.47;;;11.50;99.90;;;;;;5054378;28;20111;-70
2023/01/10 06:16:38;;;;;;;27.80;3.25;;;11.50;99.90;;;;;;5054682;28;20025;-69
2023/01/10 06:19:03;;;;;;;30.63;3.47;;;11.50;99.90;;;;;;5054826;28;20025;-69
2023/01/10 06:21:29;;;;;;;24.85;4.85;;;11.50;99.90;;;;;;5055942;28;20044;-70
2023/01/10 06:23:55;;;;;;;22.63;3.45;;;11.50;99.90;;;;;;5069041;28;20051;-70
2023/01/10 06:26:20;;;;;;;28.25;4.35;;;11.60;99.90;;;;;;5054854;28;20025;-72
2023/01/10 06:28:46;;;;;;;12.48;2.78;;;11.50;99.90;;;;;;5057807;28;20064;-72
2023/01/10 06:31:13;;;;;;;34.30;4.18;;;11.30;99.90;;;;;;5069646;28;20513;-72
2023/01/10 06:33:40;;;;;;;35.53;4.65;;;11.20;99.90;;;;;;5072501;28;20074;-78
2023/01/10 06:36:06;;;;;;;34.58;4.50;;;11.20;1.00;;;;;;5054625;28;20131;-74
2023/01/10 06:38:32;;;;;;;41.20;5.90;;;11.10;42.10;;;;;;5054533;28;20045;-75
2023/01/10 06:40:57;;;;;;;37.67;5.20;;;11.10;99.90;;;;;;5062719;28;20040;-74
2023/01/10 06:43:23;;;;;;;36.00;3.78;;;11.10;99.90;;;;;;5073970;28;20484;-74
2023/01/10 06:45:49;;;;;;;35.00;4.05;;;11.10;99.90;;;;;;5074111;28;20073;-75
2023/01/10 06:48:14;;;;;;;35.65;4.70;;;11.10;99.90;;;;;;5073673;28;20039;-74
2023/01/10 06:50:40;;;;;;;25.52;3.85;;;11.10;99.90;;;;;;5071741;28;20032;-75
2023/01/10 06:53:06;;;;;;;24.17;4.35;;;11.10;99.90;;;;;;5073999;28;20067;-74
2023/01/10 06:55:32;;;;;;;31.75;3.65;;;11.10;99.90;;;;;;5071895;28;20070;-74
2023/01/10 06:58:03;;;;;;;38.60;5.45;;;11.10;99.90;;;;;;5079929;28;20039;-75
2023/01/10 07:00:29;;;;;;;26.70;5.45;;;11.10;99.90;;;;;;5074193;28;20480;-74
2023/01/10 07:02:57;;;;;;;38.33;4.93;;;11.00;99.90;;;;;;5073891;28;20056;-74
2023/01/10 07:05:23;;;;;;;42.65;3.63;;;11.10;1.00;;;;;;5073970;28;20495;-73
2023/01/10 07:07:49;;;;;;;18.02;3.40;;;11.20;99.90;;;;;;5072019;28;20094;-73
2023/01/10 07:10:15;;;;;;;20.02;3.00;;;11.20;34.90;;;;;;5073428;28;20024;-73
2023/01/10 07:12:40;;;;;;;23.80;3.15;;;11.10;99.90;;;;;;5072998;28;20496;-76
2023/01/10 07:15:07;;;;;;;33.78;3.08;;;11.00;99.90;;;;;;5071239;28;20075;-76
2023/01/10 07:17:32;;;;;;;28.27;3.75;;;11.00;99.90;;;;;;5072630;28;20091;-76
2023/01/10 07:19:58;;;;;;;24.80;3.25;;;10.90;99.90;;;;;;5075308;28;20535;-76
2023/01/10 07:22:24;;;;;;;15.10;2.58;;;10.80;1.00;;;;;;5084043;28;20028;-77
2023/01/10 07:24:50;;;;;;;29.52;4.40;;;10.70;1.00;;;;;;5077686;28;20024;-77
2023/01/10 07:27:15;;;;;;;27.10;3.35;;;10.70;99.90;;;;;;5073034;28;20103;-77
2023/01/10 07:29:42;;;;;;;20.70;2.83;;;10.50;99.90;;;;;;5072987;28;20388;-77
2023/01/10 07:32:08;;;;;;;28.70;3.13;;;10.50;99.90;;;;;;5073057;28;20024;-76
2023/01/10 07:34:34;;;;;;;20.95;2.17;;;10.40;99.90;;;;;;5072506;28;20036;-76
2023/01/10 07:37:01;;;;;;;17.67;2.28;;;10.30;99.90;;;;;;5072619;28;20021;-77
2023/01/10 07:39:26;;;;;;;11.02;2.00;;;10.20;1.00;;;;;;5072962;28;20024;-78
2023/01/10 07:41:53;;;;;;;19.17;3.55;;;10.10;99.90;;;;;;5072333;28;20035;-77
2023/01/10 07:44:18;;;;;;;18.33;2.47;;;10.20;99.90;;;;;;5072404;28;20028;-76
2023/01/10 07:46:44;;;;;;;18.73;2.30;;;10.10;78.40;;;;;;5070902;28;20024;-75
2023/01/10 07:49:10;;;;;;;19.65;2.47;;;10.20;99.90;;;;;;5071155;28;20020;-76
2023/01/10 07:51:36;;;;;;;18.77;3.35;;;10.20;99.90;;;;;;5071367;28;20028;-75
2023/01/10 07:54:02;;;;;;;23.35;2.35;;;10.20;99.90;;;;;;5072656;28;20036;-76
2023/01/10 07:56:28;;;;;;;13.05;1.95;;;10.20;99.90;;;;;;5071159;28;20062;-74
2023/01/10 07:58:54;;;;;;;13.48;2.55;;;10.20;99.90;;;;;;5072295;28;20032;-75
2023/01/10 08:01:20;;;;;;;21.02;2.60;;;10.20;1.00;;;;;;5072337;28;20100;-75
2023/01/10 08:03:46;;;;;;;16.80;2.30;;;10.30;86.10;;;;;;5072521;28;20193;-82
2023/01/10 08:06:12;;;;;;;16.75;2.72;;;10.30;99.90;;;;;;5060026;28;20036;-82
2023/01/10 08:08:38;;;;;;;15.52;2.30;;;10.30;99.90;;;;;;5055723;28;20021;-81
2023/01/10 08:11:04;;;;;;;0.20;0.20;;;10.20;99.90;;;;;;5050351;28;20041;-80
2023/01/10 08:13:30;;;;;;;0.20;0.20;;;10.20;99.90;;;;;;5006026;28;1275687;-79
2023/01/10 08:15:57;;;;;;;0.20;0.20;;;10.20;99.90;;;;;;5061006;28;20035;-80
2023/01/10 08:18:24;;;;;;;0.20;0.20;;;10.10;99.90;;;;;;5054538;28;20389;-79
2023/01/10 08:20:52;;;;;;;1.05;1.05;;;10.10;99.90;;;;;;5057837;28;20039;-81
2023/01/10 08:23:19;;;;;;;0.20;0.20;;;10.10;99.90;;;;;;5061148;28;20017;-78
2023/01/10 08:25:45;;;;;;;0.20;0.20;;;10.20;99.90;;;;;;5055072;28;20025;-79
2023/01/10 08:28:11;;;;;;;0.30;0.30;;;10.20;99.90;;;;;;5051487;28;20078;-79
2023/01/10 08:30:37;;;;;;;0.20;0.20;;;10.20;99.90;;;;;;5055474;28;20020;-78
2023/01/10 08:33:05;;;;;;;0.20;0.20;;;10.20;99.90;;;;;;5066427;28;20474;-79
2023/01/10 08:35:38;;;;;;;0.20;0.20;;;10.20;99.90;;;;;;5067332;28;20035;-79
2023/01/10 08:38:05;;;;;;;14.15;9.95;;;10.20;1.00;;;;;;5053007;28;20261;-78
2023/01/10 08:40:31;;;;;;;0.20;0.20;;;10.20;99.90;;;;;;5052683;28;20497;-80
2023/01/10 08:42:58;;;;;;;0.25;0.25;;;10.30;1.00;;;;;;5065597;28;20473;-79
2023/01/10 08:45:25;;;;;;;0.20;0.20;;;10.30;52.80;;;;;;5072792;28;20070;-78
2023/01/10 08:47:50;;;;;;;0.20;0.20;;;10.10;99.90;;;;;;5072878;28;20031;-79
2023/01/10 08:50:16;;;;;;;0.20;0.20;;;10.10;99.90;;;;;;5074043;28;20048;-80
2023/01/10 08:52:42;;;;;;;0.20;0.20;;;10.20;99.90;;;;;;5076220;28;20041;-79
2023/01/10 08:55:08;;;;;;;0.20;0.20;;;10.10;99.90;;;;;;5078156;28;20103;-80
2023/01/10 08:57:34;;;;;;;0.20;0.20;;;10.10;20.40;;;;;;5081692;28;20040;-79
2023/01/10 08:59:59;;;;;;;0.20;0.20;;;10.10;99.90;;;;;;5095598;28;20012;-80
2023/01/10 09:02:25;;;;;;;0.30;0.30;;;10.10;99.90;;;;;;5094069;28;20021;-80
2023/01/10 09:04:51;;;;;;;0.20;0.20;;;10.10;99.90;;;;;;5090969;28;20031;-78
2023/01/10 09:07:16;;;;;;;0.20;0.20;;;10.10;99.90;;;;;;5079159;28;20051;-79
2023/01/10 09:09:43;;;;;;;0.20;0.20;;;10.10;1.00;;;;;;5071350;28;20488;-79
2023/01/10 09:14:53;;;;;;;0.28;0.28;;;10.10;99.90;;;;;;5073607;28;20055;-79
2023/01/10 09:17:19;;;;;;;0.20;0.20;;;10.20;99.90;;;;;;5072644;28;20028;-79
2023/01/10 09:19:45;;;;;;;0.20;0.20;;;10.20;99.90;;;;;;5070764;28;20021;-81
2023/01/10 09:22:10;;;;;;;0.20;0.20;;;10.30;1.00;;;;;;5071432;28;20079;-80
2023/01/10 09:24:38;;;;;;;0.20;0.20;;;10.30;27.50;;;;;;5070687;28;20025;-78
2023/01/10 09:27:04;;;;;;;0.20;0.20;;;10.40;99.90;;;;;;5070476;28;20434;-78
2023/01/10 09:29:29;;;;;;;0.45;0.43;;;10.40;99.90;;;;;;5070302;28;20028;-80
2023/01/10 09:31:55;;;;;;;0.20;0.20;;;10.40;99.90;;;;;;5071597;28;20050;-77
2023/01/10 09:34:21;;;;;;;0.20;0.20;;;10.40;99.90;;;;;;5072159;28;20040;-81
2023/01/10 09:36:47;;;;;;;0.20;0.20;;;10.50;1.00;;;;;;5071925;28;20017;-79
2023/01/10 09:39:13;;;;;;;0.20;0.20;;;10.50;17.40;;;;;;5071961;28;20034;-78
2023/01/10 09:41:59;;;;;;;0.20;0.20;;;10.50;99.90;;;;;;5071608;28;20025;-79
2023/01/10 09:44:40;;;;;;;0.20;0.20;;;10.60;99.90;;;;;;5070477;28;20536;-79
2023/01/10 09:47:44;;;;;;;0.20;0.20;;;10.60;99.90;;;;;;5070604;28;20035;-78
2023/01/10 09:50:47;;;;;;;0.20;0.20;;;10.60;99.90;;;;;;5070522;28;20063;-82
2023/01/10 09:53:19;;;;;;;0.20;0.20;;;10.70;99.90;;;;;;5072385;28;20039;-80
2023/01/10 09:55:51;;;;;;;0.20;0.20;;;10.70;99.90;;;;;;5056971;28;20025;-80
2023/01/10 09:58:19;;;;;;;0.20;0.20;;;10.70;1.00;;;;;;5054215;28;20020;-78
2023/01/10 10:00:58;;;;;;;0.20;0.20;;;10.70;1.00;;;;;;5056028;28;20143;-80
2023/01/10 10:04:01;;;;;;;0.20;0.20;;;10.80;1.00;;;;;;5069962;28;20017;-78
2023/01/10 10:06:27;;;;;;;2.28;2.05;;;10.90;1.00;;;;;;5056365;28;20060;-79
2023/01/10 10:08:53;;;;;;;0.52;0.52;;;10.90;10.30;;;;;;5051168;28;20060;-81
2023/01/10 10:11:24;;;;;;;0.20;0.20;;;10.80;23.20;;;;;;5051183;28;20032;-80
2023/01/10 10:14:22;;;;;;;0.20;0.20;;;10.90;49.10;;;;;;5050835;28;20291;-78
2023/01/10 10:17:00;;;;;;;0.20;0.20;;;10.90;99.90;;;;;;5059374;28;20466;-77
2023/01/10 10:19:47;;;;;;;0.20;0.20;;;10.90;99.90;;;;;;5064758;28;20033;-79
2023/01/10 10:22:22;;;;;;;0.20;0.20;;;10.90;99.90;;;;;;5060899;28;20422;-84
2023/01/10 10:25:15;;;;;;;0.20;0.20;;;11.00;99.90;;;;;;5071117;28;20020;-79
2023/01/10 10:27:59;;;;;;;0.20;0.20;;;11.00;99.90;;;;;;5071030;28;20021;-80
2023/01/10 10:31:10;;;;;;;0.20;0.20;;;11.00;99.90;;;;;;5066369;28;20017;-79
2023/01/10 10:33:48;;;;;;;4.07;1.60;;;11.00;99.90;;;;;;5059325;28;20220;-82
2023/01/10 10:36:30;;;;;;;0.20;0.20;;;11.10;99.90;;;;;;5067894;28;20085;-81
2023/01/10 10:39:00;;;;;;;0.20;0.20;;;11.10;99.90;;;;;;5063080;28;20032;-80
2023/01/10 10:41:37;;;;;;;0.20;0.20;;;11.10;99.90;;;;;;5060702;28;20123;-77
2023/01/10 10:44:37;;;;;;;0.20;0.20;;;11.10;99.90;;;;;;5070720;28;20028;-80
2023/01/10 10:47:14;;;;;;;0.13;0.13;;;11.20;99.90;;;;;;4982061;28;20038;-77
2023/01/10 10:49:49;;;;;;;0.10;0.10;;;11.30;99.90;;;;;;5064473;28;20028;-76
2023/01/10 10:52:31;;;;;;;0.17;0.17;;;11.30;99.90;;;;;;5056629;28;20033;-74
2023/01/10 10:54:57;;;;;;;1.38;1.27;;;11.40;99.90;;;;;;5049354;28;20112;-76
2023/01/10 10:57:37;;;;;;;0.10;0.10;;;11.40;99.90;;;;;;5052386;28;20375;-73
2023/01/10 11:00:06;;;;;;;0.10;0.10;;;11.50;99.90;;;;;;5036063;28;20416;-77
2023/01/10 11:02:39;;;;;;;0.20;0.20;;;11.50;99.90;;;;;;5052772;28;20033;-75
2023/01/10 11:05:13;;;;;;;0.20;0.20;;;11.60;99.90;;;;;;5053459;28;20100;-74
2023/01/10 11:07:39;;;;;;;0.17;0.17;;;11.60;99.90;;;;;;5052695;28;20036;-74
2023/01/10 11:10:33;;;;;;;0.15;0.15;;;11.70;99.90;;;;;;5054169;28;20017;-74
2023/01/10 11:13:04;;;;;;;0.30;0.30;;;11.70;99.90;;;;;;5053807;28;20039;-74
2023/01/10 11:15:39;;;;;;;0.20;0.20;;;11.90;99.90;;;;;;5060180;28;20036;-73
2023/01/10 11:18:10;;;;;;;0.20;0.20;;;12.00;99.90;;;;;;5063205;28;20095;-73
2023/01/10 11:20:36;;;;;;;17.15;0.90;;;12.00;99.90;;;;;;5068201;28;20029;-74
2023/01/10 11:23:03;;;;;;;0.45;0.45;;;12.00;99.90;;;;;;5057094;28;20520;-75
2023/01/10 11:25:29;;;;;;;0.20;0.20;;;12.10;99.90;;;;;;5051518;28;20021;-73
2023/01/10 11:28:00;;;;;;;0.52;0.52;;;12.20;99.90;;;;;;5066470;28;20542;-74
2023/01/10 11:30:33;;;;;;;0.13;0.13;;;12.20;99.90;;;;;;5053836;28;20017;-75
2023/01/10 11:33:01;;;;;;;0.15;0.15;;;12.40;99.90;;;;;;5056248;28;20386;-74
2023/01/10 11:35:35;;;;;;;0.20;0.20;;;12.30;99.90;;;;;;5053259;28;20462;-73
2023/01/10 11:38:18;;;;;;;0.20;0.20;;;12.40;99.90;;;;;;5057033;28;20295;-74
2023/01/10 11:40:59;;;;;;;0.20;0.20;;;12.50;99.90;;;;;;5065302;28;20043;-74
2023/01/10 11:43:26;;;;;;;0.38;0.38;;;12.50;99.90;;;;;;5073229;28;20476;-73
2023/01/10 11:45:55;;;;;;;0.30;0.30;;;12.50;99.90;;;;;;5072019;28;20020;-75
2023/01/10 11:48:24;;;;;;;0.20;0.20;;;12.50;99.90;;;;;;5064513;28;20111;-73
2023/01/10 11:50:52;;;;;;;0.10;0.10;;;12.70;99.90;;;;;;5068997;28;20017;-72
2023/01/10 11:53:41;;;;;;;0.15;0.15;;;12.70;99.90;;;;;;5058694;28;20043;-72
2023/01/10 11:56:14;;;;;;;2.50;2.40;;;12.90;99.90;;;;;;5048414;28;20491;-72
2023/01/10 11:58:41;;;;;;;0.20;0.20;;;12.80;99.90;;;;;;5066344;28;20370;-70
2023/01/10 12:01:47;;;;;;;0.17;0.17;;;13.00;99.90;;;;;;5065535;28;20025;-72
2023/01/10 12:04:19;;;;;;;0.10;0.10;;;13.00;99.90;;;;;;5060562;28;20240;-70
2023/01/10 12:06:51;;;;;;;0.10;0.10;;;13.00;99.90;;;;;;5068594;28;20467;-70
2023/01/10 12:09:34;;;;;;;1.02;1.00;;;13.10;99.90;;;;;;5062123;28;20441;-71
2023/01/10 12:12:17;;;;;;;0.17;0.17;;;13.60;99.90;;;;;;5059822;28;20025;-69
2023/01/10 12:14:44;;;;;;;0.20;0.20;;;13.40;99.90;;;;;;5056333;28;20100;-69
2023/01/10 12:17:26;;;;;;;0.10;0.10;;;13.30;99.90;;;;;;5059289;28;20040;-70
2023/01/10 12:19:55;;;;;;;0.10;0.10;;;13.60;99.90;;;;;;5057726;28;20044;-70
2023/01/10 12:22:45;;;;;;;0.10;0.10;;;13.50;99.90;;;;;;5064525;28;20048;-70
2023/01/10 12:25:19;;;;;;;0.10;0.10;;;13.60;99.90;;;;;;5053338;28;20120;-71
2023/01/10 12:27:49;;;;;;;0.15;0.15;;;13.60;99.90;;;;;;5060136;28;20028;-69
2023/01/10 12:30:40;;;;;;;4.85;2.33;;;13.70;99.90;;;;;;5058238;28;20371;-70
2023/01/10 12:33:29;;;;;;;0.20;0.20;;;13.80;99.90;;;;;;5060002;28;20079;-70
2023/01/10 12:36:12;;;;;;;0.15;0.15;;;13.90;99.90;;;;;;5058189;28;20037;-69
2023/01/10 12:39:03;;;;;;;0.20;0.20;;;13.90;99.90;;;;;;5061840;28;20024;-69
2023/01/10 12:44:38;;;;;;;0.10;0.10;;;14.10;99.90;;;;;;5055782;28;20079;-70
2023/01/10 12:47:37;;;;;;;0.13;0.13;;;14.10;99.90;;;;;;5061492;28;20040;-69
2023/01/10 12:50:31;;;;;;;29.92;1.98;;;14.20;99.90;;;;;;5056101;28;20021;-70
2023/01/10 12:53:10;;;;;;;0.10;0.10;;;14.30;99.90;;;;;;5054375;28;20025;-70
2023/01/10 12:55:42;;;;;;;0.10;0.10;;;14.30;99.90;;;;;;5050466;28;20039;-69
2023/01/10 12:58:36;;;;;;;;;;;14.30;99.90;;;;;;5053544;28;20025;-70
2023/01/10 13:01:04;;;;;;;0.20;0.20;;;14.30;99.90;;;;;;5041470;28;19905;-70
2023/01/10 13:03:32;;;;;;;0.13;0.13;;;14.30;99.90;;;;;;5052270;28;20090;-70
2023/01/10 13:05:58;;;;;;;0.15;0.15;;;14.30;99.90;;;;;;5052228;28;20048;-70
2023/01/10 13:08:27;;;;;;;0.20;0.20;;;14.30;99.90;;;;;;5052890;28;20025;-70
2023/01/10 13:10:56;;;;;;;1.65;1.55;;;14.40;99.90;;;;;;5051366;28;20086;-69
2023/01/10 13:13:40;;;;;;;0.20;0.20;;;14.40;99.90;;;;;;5051177;28;20125;-70
2023/01/10 13:16:46;;;;;;;0.10;0.10;;;14.40;99.90;;;;;;5050261;28;20017;-70
2023/01/10 13:19:13;;;;;;;0.20;0.20;;;14.30;99.90;;;;;;5053047;28;20025;-70
2023/01/10 13:21:41;;;;;;;0.20;0.20;;;14.30;99.90;;;;;;5051078;28;20618;-70